createdAt,value
2019-06-09T00:00:43.005Z,2.50
2019-06-09T00:03:13.536Z,2.90
2019-06-09T00:05:43.452Z,2.90
2019-06-09T00:08:13.321Z,2.63
2019-06-09T00:10:43.096Z,2.83
2019-06-09T00:13:14.339Z,2.70
2019-06-09T00:15:44.205Z,2.83
2019-06-09T00:18:13.882Z,2.77
2019-06-09T00:20:48.490Z,2.40
2019-06-09T00:23:20.650Z,2.73
2019-06-09T00:25:50.377Z,2.63
2019-06-09T00:28:20.053Z,2.93
2019-06-09T00:30:57.629Z,2.63
2019-06-09T00:33:28.385Z,2.93
2019-06-09T00:35:58.113Z,2.57
2019-06-09T00:38:27.825Z,2.90
2019-06-09T00:40:59.507Z,2.63
2019-06-09T00:43:29.286Z,2.73
2019-06-09T00:45:59.009Z,3.00
2019-06-09T00:48:28.781Z,2.33
2019-06-09T00:50:58.462Z,2.50
2019-06-09T00:53:28.626Z,2.50
2019-06-09T00:55:58.386Z,2.53
2019-06-09T00:58:28.904Z,2.80
2019-06-09T01:00:58.881Z,2.70
2019-06-09T01:03:30.917Z,2.73
2019-06-09T01:06:00.617Z,2.53
2019-06-09T01:08:31.352Z,3.60
2019-06-09T01:11:02.079Z,2.67
2019-06-09T01:13:31.853Z,3.10
2019-06-09T01:16:01.529Z,2.77
2019-06-09T01:18:31.226Z,2.40
2019-06-09T01:21:00.907Z,2.77
2019-06-09T01:23:30.589Z,2.67
2019-06-09T01:26:00.353Z,2.47
2019-06-09T01:28:30.046Z,2.20
2019-06-09T01:30:59.738Z,2.50
2019-06-09T01:33:29.534Z,2.30
2019-06-09T01:35:59.214Z,2.80
2019-06-09T01:38:28.909Z,2.53
2019-06-09T01:40:58.581Z,2.13
2019-06-09T01:43:28.286Z,2.90
2019-06-09T01:45:58.163Z,2.20
2019-06-09T01:48:28.117Z,2.40
2019-06-09T01:50:57.866Z,2.37
2019-06-09T01:53:28.474Z,2.50
2019-06-09T01:55:58.321Z,2.40
2019-06-09T01:58:28.097Z,2.87
2019-06-09T02:00:57.854Z,2.30
2019-06-09T02:03:27.837Z,2.50
2019-06-09T02:05:58.666Z,2.43
2019-06-09T02:08:28.437Z,2.57
2019-06-09T02:10:58.138Z,2.20
2019-06-09T02:13:27.959Z,2.33
2019-06-09T02:15:57.960Z,2.63
2019-06-09T02:18:28.488Z,2.77
2019-06-09T02:20:58.634Z,2.27
2019-06-09T02:23:28.393Z,2.77
2019-06-09T02:25:59.175Z,2.70
2019-06-09T02:28:28.927Z,2.40
2019-06-09T02:30:58.997Z,2.57
2019-06-09T02:33:40.835Z,2.40
2019-06-09T02:36:11.127Z,2.50
2019-06-09T02:38:37.083Z,2.10
2019-06-09T02:41:04.024Z,2.27
2019-06-09T02:43:37.792Z,2.23
2019-06-09T02:46:54.625Z,2.50
2019-06-09T02:49:28.262Z,2.57
2019-06-09T02:51:55.020Z,2.37
2019-06-09T02:54:31.309Z,2.97
2019-06-09T02:56:56.115Z,2.33
2019-06-09T02:59:31.567Z,2.20
2019-06-09T03:01:57.416Z,2.07
2019-06-09T03:04:34.626Z,2.37
2019-06-09T03:06:58.564Z,2.23
2019-06-09T03:09:33.195Z,2.43
2019-06-09T03:12:02.418Z,2.03
2019-06-09T03:14:38.913Z,2.10
2019-06-09T03:17:02.923Z,2.90
2019-06-09T03:19:40.929Z,2.10
2019-06-09T03:22:04.263Z,2.90
2019-06-09T03:24:40.738Z,2.30
2019-06-09T03:27:05.475Z,2.30
2019-06-09T03:29:43.251Z,2.80
2019-06-09T03:32:26.581Z,2.70
2019-06-09T03:37:52.880Z,2.20
2019-06-09T03:39:46.815Z,2.60
2019-06-09T03:42:16.293Z,2.10
2019-06-09T03:44:46.845Z,2.23
2019-06-09T03:47:16.716Z,2.20
2019-06-09T03:49:46.557Z,2.10
2019-06-09T03:52:16.352Z,1.90
2019-06-09T03:54:47.027Z,2.20
2019-06-09T03:57:16.952Z,2.40
2019-06-09T03:59:48.356Z,2.47
2019-06-09T04:02:18.089Z,2.43
2019-06-09T04:04:52.228Z,2.47
2019-06-09T04:07:22.787Z,2.00
2019-06-09T04:09:52.771Z,2.33
2019-06-09T04:12:26.186Z,2.03
2019-06-09T04:14:54.121Z,2.17
2019-06-09T04:17:24.548Z,2.10
2019-06-09T04:19:55.187Z,2.53
2019-06-09T04:22:30.390Z,2.30
2019-06-09T04:24:56.260Z,2.60
2019-06-09T04:27:27.346Z,2.40
2019-06-09T04:29:57.378Z,2.40
2019-06-09T04:32:28.426Z,2.50
2019-06-09T04:34:58.517Z,2.20
2019-06-09T04:37:29.531Z,2.33
2019-06-09T04:40:02.645Z,2.13
2019-06-09T04:42:38.744Z,2.57
2019-06-09T04:45:03.863Z,2.20
2019-06-09T04:47:38.608Z,2.13
2019-06-09T04:50:05.702Z,1.97
2019-06-09T04:52:41.253Z,2.57
2019-06-09T04:55:06.997Z,2.20
2019-06-09T04:57:40.934Z,2.10
2019-06-09T05:00:14.196Z,2.00
2019-06-09T05:02:46.539Z,2.17
2019-06-09T05:05:12.437Z,2.30
2019-06-09T05:07:51.442Z,2.00
2019-06-09T05:10:14.218Z,2.10
2019-06-09T05:12:47.739Z,2.93
2019-06-09T05:15:15.330Z,2.83
2019-06-09T05:17:48.675Z,2.60
2019-06-09T05:20:16.556Z,1.83
2019-06-09T05:22:48.519Z,1.80
2019-06-09T05:25:17.813Z,1.97
2019-06-09T05:27:48.365Z,1.70
2019-06-09T05:30:21.507Z,1.83
2019-06-09T05:32:51.358Z,1.93
2019-06-09T05:35:22.428Z,1.87
2019-06-09T05:37:52.331Z,1.70
2019-06-09T05:40:22.534Z,1.70
2019-06-09T05:42:52.625Z,1.53
2019-06-09T05:45:23.453Z,2.10
2019-06-09T05:47:53.234Z,1.60
2019-06-09T05:50:22.925Z,1.20
2019-06-09T05:52:52.630Z,1.73
2019-06-09T05:55:22.335Z,1.80
2019-06-09T05:57:52.042Z,1.53
2019-06-09T06:00:22.119Z,1.60
2019-06-09T06:02:51.952Z,1.90
2019-06-09T06:05:21.810Z,1.60
2019-06-09T06:07:51.726Z,1.57
2019-06-09T06:10:21.575Z,1.50
2019-06-09T06:12:52.418Z,1.50
2019-06-09T06:15:22.342Z,1.90
2019-06-09T06:17:52.037Z,1.37
2019-06-09T06:20:21.830Z,1.67
2019-06-09T06:22:52.555Z,1.70
2019-06-09T06:25:23.184Z,1.67
2019-06-09T06:27:53.326Z,2.10
2019-06-09T06:30:24.360Z,1.73
2019-06-09T06:32:54.125Z,1.43
2019-06-09T06:35:23.841Z,1.73
2019-06-09T06:37:55.608Z,1.83
2019-06-09T06:40:24.922Z,1.70
2019-06-09T06:42:54.723Z,1.67
2019-06-09T06:45:24.550Z,1.67
2019-06-09T06:47:54.259Z,1.67
2019-06-09T06:50:24.032Z,1.70
2019-06-09T06:52:53.885Z,1.40
2019-06-09T06:55:23.591Z,1.60
2019-06-09T06:57:53.366Z,1.20
2019-06-09T07:00:23.402Z,1.40
2019-06-09T07:02:53.202Z,1.50
2019-06-09T07:05:22.906Z,1.67
2019-06-09T07:08:04.887Z,1.60
2019-06-09T07:10:24.063Z,1.47
2019-06-09T07:12:53.798Z,1.47
2019-06-09T07:15:23.567Z,1.60
2019-06-09T07:17:53.937Z,1.40
2019-06-09T07:20:23.950Z,1.70
2019-06-09T07:22:53.669Z,1.63
2019-06-09T07:25:23.938Z,1.40
2019-06-09T07:27:55.626Z,1.67
2019-06-09T07:30:28.348Z,1.37
2019-06-09T07:32:58.643Z,1.40
2019-06-09T07:35:48.425Z,1.57
2019-06-09T07:38:24.641Z,1.57
2019-06-09T07:40:54.102Z,1.20
2019-06-09T07:43:22.020Z,1.40
2019-06-09T07:45:57.203Z,1.33
2019-06-09T07:48:23.611Z,1.50
2019-06-09T07:50:54.581Z,1.30
2019-06-09T07:53:24.501Z,1.50
2019-06-09T07:55:54.382Z,1.50
2019-06-09T07:58:24.324Z,1.30
2019-06-09T08:00:55.171Z,1.47
2019-06-09T08:03:25.241Z,1.20
2019-06-09T08:05:55.252Z,1.20
2019-06-09T08:08:39.707Z,1.43
2019-06-09T08:10:56.545Z,1.30
2019-06-09T08:13:27.359Z,1.47
2019-06-09T08:15:57.042Z,1.30
2019-06-09T08:18:26.798Z,1.30
2019-06-09T08:20:56.731Z,1.20
2019-06-09T08:23:26.430Z,1.27
2019-06-09T08:25:56.377Z,1.30
2019-06-09T08:28:26.225Z,1.57
2019-06-09T08:30:55.925Z,1.30
2019-06-09T08:33:25.781Z,1.10
2019-06-09T08:35:56.926Z,1.77
2019-06-09T08:38:27.165Z,1.50
2019-06-09T08:40:57.979Z,1.23
2019-06-09T08:43:31.305Z,1.30
2019-06-09T08:46:02.594Z,1.07
2019-06-09T08:48:33.213Z,1.40
2019-06-09T08:51:02.976Z,1.77
2019-06-09T08:53:32.811Z,1.80
2019-06-09T08:56:08.617Z,1.20
2019-06-09T08:58:40.696Z,1.47
2019-06-09T09:01:11.716Z,1.30
2019-06-09T09:03:41.690Z,1.20
2019-06-09T09:06:11.598Z,1.50
2019-06-09T09:08:42.610Z,1.50
2019-06-09T09:11:12.449Z,1.77
2019-06-09T09:13:42.157Z,1.27
2019-06-09T09:16:11.957Z,1.57
2019-06-09T09:18:41.987Z,1.37
2019-06-09T09:21:12.687Z,1.27
2019-06-09T09:23:42.378Z,1.20
2019-06-09T09:26:12.089Z,1.30
2019-06-09T09:28:41.844Z,1.10
2019-06-09T09:31:11.657Z,1.13
2019-06-09T09:33:42.581Z,1.20
2019-06-09T09:36:20.874Z,1.13
2019-06-09T09:38:50.504Z,1.00
2019-06-09T09:41:21.335Z,1.00
2019-06-09T09:43:54.534Z,1.20
2019-06-09T09:46:22.457Z,1.10
2019-06-09T09:48:54.011Z,1.10
2019-06-09T09:51:23.687Z,1.27
2019-06-09T09:53:55.654Z,1.30
2019-06-09T09:56:24.850Z,1.23
2019-06-09T09:58:55.721Z,1.03
2019-06-09T10:01:26.103Z,0.90
2019-06-09T10:03:58.437Z,1.10
2019-06-09T10:06:27.218Z,1.17
2019-06-09T10:08:59.073Z,1.20
2019-06-09T10:11:28.538Z,0.97
2019-06-09T10:13:58.645Z,1.20
2019-06-09T10:16:30.552Z,1.20
2019-06-09T10:19:01.810Z,1.00
2019-06-09T10:21:32.083Z,1.00
2019-06-09T10:24:01.946Z,1.00
2019-06-09T10:26:31.953Z,1.10
2019-06-09T10:29:03.636Z,1.30
2019-06-09T10:32:12.919Z,1.00
2019-06-09T10:34:44.472Z,1.10
2019-06-09T10:37:15.318Z,1.20
2019-06-09T10:40:16.483Z,1.17
2019-06-09T10:42:38.479Z,1.00
2019-06-09T10:45:11.294Z,0.90
2019-06-09T10:47:47.091Z,1.33
2019-06-09T10:50:17.054Z,1.20
2019-06-09T10:52:46.857Z,1.00
2019-06-09T10:55:20.757Z,1.17
2019-06-09T10:57:53.214Z,1.20
2019-06-09T11:00:30.415Z,1.13
2019-06-09T11:02:55.149Z,1.20
2019-06-09T11:05:55.351Z,0.90
2019-06-09T11:08:26.547Z,0.90
2019-06-09T11:10:57.157Z,1.47
2019-06-09T11:13:33.305Z,1.30
2019-06-09T11:16:13.710Z,1.03
2019-06-09T11:19:12.350Z,1.47
2019-06-09T11:21:42.207Z,1.30
2019-06-09T11:24:12.041Z,1.33
2019-06-09T11:26:42.887Z,1.00
2019-06-09T11:29:12.702Z,1.10
2019-06-09T11:31:43.803Z,1.23
2019-06-09T11:34:13.769Z,1.20
2019-06-09T11:36:43.735Z,1.17
2019-06-09T11:39:16.865Z,1.50
2019-06-09T11:41:46.973Z,1.40
2019-06-09T11:44:16.665Z,1.20
2019-06-09T11:46:46.398Z,1.40
2019-06-09T11:49:22.241Z,1.60
2019-06-09T11:51:55.681Z,1.33
2019-06-09T11:54:25.554Z,1.37
2019-06-09T11:57:05.219Z,1.20
2019-06-09T11:59:34.023Z,1.20
2019-06-09T12:02:06.296Z,1.43
2019-06-09T12:04:35.173Z,1.20
2019-06-09T12:07:06.676Z,1.50
2019-06-09T12:09:36.393Z,1.37
2019-06-09T12:12:06.714Z,1.53
2019-06-09T12:14:36.633Z,1.10
2019-06-09T12:17:06.494Z,1.40
2019-06-09T12:19:36.207Z,1.60
2019-06-09T12:22:07.282Z,1.30
2019-06-09T12:24:37.261Z,1.10
2019-06-09T12:27:08.021Z,1.53
2019-06-09T12:29:42.050Z,1.40
2019-06-09T12:32:15.585Z,1.20
2019-06-09T12:34:45.335Z,1.30
2019-06-09T12:37:17.879Z,1.23
2019-06-09T12:39:46.513Z,1.50
2019-06-09T12:42:16.287Z,1.40
2019-06-09T12:44:46.054Z,1.30
2019-06-09T12:47:15.839Z,1.50
2019-06-09T12:49:45.599Z,1.70
2019-06-09T12:52:15.377Z,1.60
2019-06-09T12:54:48.690Z,1.20
2019-06-09T12:57:16.693Z,1.30
2019-06-09T12:59:46.517Z,1.20
2019-06-09T13:02:16.281Z,1.40
2019-06-09T13:04:46.009Z,1.63
2019-06-09T13:07:15.707Z,1.77
2019-06-09T13:09:45.481Z,1.53
2019-06-09T13:12:15.181Z,1.27
2019-06-09T13:14:44.877Z,1.77
2019-06-09T13:17:14.579Z,1.43
2019-06-09T13:19:44.370Z,1.33
2019-06-09T13:22:14.061Z,1.40
2019-06-09T13:24:43.835Z,1.20
2019-06-09T13:27:13.766Z,1.30
2019-06-09T13:29:43.570Z,1.60
2019-06-09T13:32:14.763Z,1.20
2019-06-09T13:34:44.705Z,1.50
2019-06-09T13:37:14.486Z,4.00
2019-06-09T13:39:44.267Z,1.30
2019-06-09T13:42:15.593Z,1.60
2019-06-09T13:44:45.305Z,1.60
2019-06-09T13:47:17.696Z,1.30
2019-06-09T13:49:46.387Z,1.20
2019-06-09T13:52:16.092Z,1.03
2019-06-09T13:54:45.806Z,1.47
2019-06-09T13:57:15.654Z,1.63
2019-06-09T13:59:46.330Z,1.40
2019-06-09T14:02:16.533Z,1.17
2019-06-09T14:04:46.404Z,1.43
2019-06-09T14:07:16.655Z,1.30
2019-06-09T14:09:46.606Z,1.60
2019-06-09T14:12:19.334Z,1.30
2019-06-09T14:14:47.786Z,1.47
2019-06-09T14:17:17.476Z,1.27
2019-06-09T14:19:47.162Z,1.30
2019-06-09T14:22:17.097Z,1.53
2019-06-09T14:24:46.950Z,1.50
2019-06-09T14:27:18.431Z,1.10
2019-06-09T14:29:51.098Z,1.30
2019-06-09T14:32:29.524Z,1.30
2019-06-09T14:34:52.502Z,1.37
2019-06-09T14:37:22.342Z,1.20
2019-06-09T14:39:52.173Z,1.30
2019-06-09T14:42:36.364Z,1.63
2019-06-09T14:44:54.405Z,1.20
2019-06-09T14:47:24.646Z,1.40
2019-06-09T14:49:54.354Z,1.43
2019-06-09T14:52:24.392Z,1.40
2019-06-09T15:00:26.636Z,1.70
2019-06-09T15:02:56.375Z,1.60
2019-06-09T15:05:26.141Z,1.40
2019-06-09T15:07:55.854Z,1.83
2019-06-09T15:10:25.692Z,1.40
2019-06-09T15:12:55.489Z,1.37
2019-06-09T15:15:25.417Z,1.50
2019-06-09T15:17:55.171Z,1.27
2019-06-09T15:20:24.956Z,2.00
2019-06-09T15:22:54.813Z,1.50
2019-06-09T15:25:24.523Z,1.50
2019-06-09T15:27:54.282Z,1.70
2019-06-09T15:30:26.850Z,1.50
2019-06-09T15:32:55.690Z,1.60
2019-06-09T15:35:25.404Z,2.27
2019-06-09T15:38:02.350Z,2.00
2019-06-09T15:40:26.500Z,1.80
2019-06-09T15:42:56.220Z,1.60
2019-06-09T15:45:26.226Z,1.80
2019-06-09T15:47:56.018Z,1.73
2019-06-09T15:50:26.889Z,1.80
2019-06-09T15:52:56.590Z,1.47
2019-06-09T15:55:26.470Z,1.67
2019-06-09T15:57:56.494Z,1.80
2019-06-09T16:00:47.582Z,2.03
2019-06-09T16:03:17.545Z,1.67
2019-06-09T16:05:50.942Z,1.80
2019-06-09T16:08:33.010Z,1.97
2019-06-09T16:11:06.174Z,1.90
2019-06-09T16:13:37.063Z,1.63
2019-06-09T16:16:10.972Z,2.00
2019-06-09T16:18:42.913Z,2.50
2019-06-09T16:21:12.613Z,1.73
2019-06-09T16:23:42.322Z,1.70
2019-06-09T16:26:12.097Z,1.90
2019-06-09T16:28:41.778Z,2.67
2019-06-09T16:31:11.618Z,2.03
2019-06-09T16:33:41.747Z,2.07
2019-06-09T16:36:11.668Z,2.07
2019-06-09T16:38:41.567Z,2.00
2019-06-09T16:41:11.811Z,1.93
2019-06-09T16:43:50.415Z,5.30
2019-06-09T16:46:13.577Z,1.80
2019-06-09T16:48:44.113Z,1.50
2019-06-09T16:51:15.765Z,1.83
2019-06-09T16:53:47.214Z,2.03
2019-06-09T16:56:17.111Z,2.70
2019-06-09T16:58:47.102Z,2.10
2019-06-09T17:01:16.853Z,1.90
2019-06-09T17:03:46.654Z,2.00
2019-06-09T17:06:16.422Z,2.00
2019-06-09T17:08:48.353Z,2.10
2019-06-09T17:11:18.053Z,1.83
2019-06-09T17:13:59.320Z,1.90
2019-06-09T17:16:21.670Z,2.63
2019-06-09T17:18:50.907Z,3.20
2019-06-09T17:21:21.718Z,1.90
2019-06-09T17:23:52.030Z,1.83
2019-06-09T17:26:23.625Z,2.27
2019-06-09T17:28:53.146Z,1.80
2019-06-09T17:31:24.246Z,2.00
2019-06-09T17:33:54.161Z,1.80
2019-06-09T17:36:24.115Z,2.37
2019-06-09T17:38:54.002Z,1.90
2019-06-09T17:41:24.215Z,1.90
2019-06-09T17:44:06.861Z,1.97
2019-06-09T17:46:25.720Z,1.80
2019-06-09T17:48:56.902Z,1.90
2019-06-09T17:51:28.139Z,1.63
2019-06-09T17:53:58.063Z,1.83
2019-06-09T17:56:31.276Z,1.77
2019-06-09T17:59:01.231Z,1.80
2019-06-09T18:01:33.956Z,2.10
2019-06-09T18:04:02.446Z,1.60
2019-06-09T18:06:34.970Z,1.73
2019-06-09T18:09:05.385Z,2.17
2019-06-09T18:11:36.448Z,1.70
2019-06-09T18:14:06.690Z,3.40
2019-06-09T18:16:39.119Z,2.03
2019-06-09T18:19:08.178Z,2.20
2019-06-09T18:21:39.106Z,1.93
2019-06-09T18:24:11.673Z,2.10
2019-06-09T18:26:40.868Z,1.70
2019-06-09T18:29:10.658Z,2.30
2019-06-09T18:31:42.947Z,2.07
2019-06-09T18:34:13.764Z,2.23
2019-06-09T18:36:44.997Z,2.50
2019-06-09T18:39:15.771Z,2.33
2019-06-09T18:41:51.317Z,2.30
2019-06-09T18:44:21.749Z,2.70
2019-06-09T18:46:51.834Z,2.53
2019-06-09T18:49:21.954Z,2.20
2019-06-09T18:51:51.887Z,2.10
2019-06-09T18:54:21.736Z,2.73
2019-06-09T18:56:51.433Z,2.33
2019-06-09T18:59:21.450Z,2.50
2019-06-09T19:01:51.510Z,2.20
2019-06-09T19:04:21.610Z,2.97
2019-06-09T19:06:52.100Z,2.63
2019-06-09T19:09:22.064Z,2.93
2019-06-09T19:11:51.850Z,2.37
2019-06-09T19:14:21.552Z,2.60
2019-06-09T19:16:51.885Z,2.70
2019-06-09T19:19:32.198Z,2.63
2019-06-09T19:22:03.578Z,2.30
2019-06-09T19:24:34.472Z,2.50
2019-06-09T19:27:05.041Z,2.20
2019-06-09T19:29:35.566Z,2.23
2019-06-09T19:32:05.471Z,2.40
2019-06-09T19:34:36.050Z,3.70
2019-06-09T19:37:05.993Z,2.87
2019-06-09T19:39:36.306Z,2.57
2019-06-09T19:42:06.100Z,2.17
2019-06-09T19:44:37.100Z,2.60
2019-06-09T19:47:07.050Z,2.30
2019-06-09T19:49:37.755Z,2.00
2019-06-09T19:52:07.897Z,2.00
2019-06-09T19:54:38.216Z,2.03
2019-06-09T19:57:08.091Z,1.90
2019-06-09T19:59:43.691Z,2.23
2019-06-09T20:02:12.062Z,2.13
2019-06-09T20:04:43.624Z,2.30
2019-06-09T20:07:13.346Z,1.80
2019-06-09T20:09:45.284Z,1.93
2019-06-09T20:12:16.128Z,1.77
2019-06-09T20:14:46.961Z,1.90
2019-06-09T20:17:17.508Z,2.27
2019-06-09T20:19:47.265Z,2.13
2019-06-09T20:22:17.017Z,2.03
2019-06-09T20:24:46.785Z,2.20
2019-06-09T20:27:18.410Z,1.90
2019-06-09T20:29:48.374Z,1.90
2019-06-09T20:32:18.193Z,1.80
2019-06-09T20:34:48.151Z,1.80
2019-06-09T20:37:17.935Z,2.20
2019-06-09T20:40:14.691Z,2.00
2019-06-09T20:42:21.634Z,2.40
2019-06-09T20:44:51.836Z,2.50
2019-06-09T20:47:21.751Z,2.13
2019-06-09T20:49:53.392Z,2.20
2019-06-09T20:52:23.314Z,2.27
2019-06-09T20:54:53.982Z,2.63
2019-06-09T20:57:24.806Z,2.20
2019-06-09T20:59:55.175Z,2.13
2019-06-09T21:02:25.093Z,1.90
2019-06-09T21:04:55.005Z,1.93
2019-06-09T21:07:25.494Z,1.90
2019-06-09T21:09:56.861Z,1.97
2019-06-09T21:12:27.792Z,2.10
2019-06-09T21:14:57.546Z,1.70
2019-06-09T21:17:27.226Z,1.80
2019-06-09T21:19:57.105Z,2.20
2019-06-09T21:22:26.797Z,2.30
2019-06-09T21:24:56.523Z,2.57
2019-06-09T21:27:26.234Z,2.10
2019-06-09T21:29:55.938Z,2.00
2019-06-09T21:32:25.618Z,2.40
2019-06-09T21:34:55.771Z,2.40
2019-06-09T21:37:25.607Z,2.30
2019-06-09T21:39:55.410Z,2.33
2019-06-09T21:42:25.178Z,2.20
2019-06-09T21:44:56.392Z,2.40
2019-06-09T21:47:26.333Z,2.43
2019-06-09T21:49:56.086Z,2.40
2019-06-09T21:52:28.236Z,2.20
2019-06-09T21:54:57.361Z,2.40
2019-06-09T21:57:27.416Z,2.17
2019-06-09T21:59:57.175Z,2.63
2019-06-09T22:02:27.022Z,2.80
2019-06-09T22:04:57.146Z,2.33
2019-06-09T22:07:27.088Z,2.80
2019-06-09T22:09:56.981Z,3.10
2019-06-09T22:12:26.759Z,3.00
2019-06-09T22:14:57.637Z,4.07
2019-06-09T22:17:27.806Z,2.93
2019-06-09T22:19:57.613Z,2.63
2019-06-09T22:22:27.505Z,2.60
2019-06-09T22:24:57.418Z,2.40
2019-06-09T22:27:27.188Z,2.27
2019-06-09T22:29:57.561Z,2.80
2019-06-09T22:32:27.551Z,3.00
2019-06-09T22:34:57.843Z,3.10
2019-06-09T22:37:27.631Z,2.70
2019-06-09T22:39:57.914Z,2.60
2019-06-09T22:42:31.024Z,2.80
2019-06-09T22:45:01.028Z,2.80
2019-06-09T22:47:47.073Z,2.70
2019-06-09T22:50:03.353Z,3.27
2019-06-09T22:52:33.243Z,3.20
2019-06-09T22:55:04.063Z,2.40
2019-06-09T22:57:34.107Z,2.47
2019-06-09T23:00:10.958Z,2.90
2019-06-09T23:02:37.850Z,2.50
2019-06-09T23:05:11.360Z,2.53
2019-06-09T23:07:41.335Z,2.57
2019-06-09T23:10:11.235Z,2.73
2019-06-09T23:12:41.152Z,2.80
2019-06-09T23:15:11.723Z,2.63
2019-06-09T23:17:41.890Z,2.57
2019-06-09T23:20:12.055Z,2.93
2019-06-09T23:22:41.898Z,2.80
2019-06-09T23:25:13.021Z,2.43
2019-06-09T23:27:42.874Z,2.83
2019-06-09T23:30:13.227Z,2.80
2019-06-09T23:32:42.983Z,2.60
2019-06-09T23:35:12.863Z,2.80
2019-06-09T23:37:42.705Z,3.03
2019-06-09T23:40:12.981Z,3.83
2019-06-09T23:42:42.762Z,3.20
2019-06-09T23:45:12.629Z,2.73
2019-06-09T23:47:44.912Z,3.03
2019-06-09T23:50:15.267Z,2.70
2019-06-09T23:52:45.141Z,2.73
2019-06-09T23:55:15.085Z,2.70
2019-06-09T23:57:44.879Z,3.00
